aviador You're here:

KQKG Decoded Metar

in
Report Time2017-09-20 19:55:00
UTC Time2017-09-20 20:11:54
Flight Rules vfr VFR
WindCalm
Visibility9999 m
Phenomena:N/A
Clouds:Few 085 Hf
Broken 100 Hf
Broken 160 Hf
Expected CloudBase > 1,600 ft AGL from Temp-Dew spread
Ceiling10,000 ft
Temp17°C
Dew Point13°C (77% RH)
QNH1015 hPa
Raw Report
METAR KQKG 201955Z AUTO 00000KT 9SM FEW085 BKN100 BKN160 17/13 A2997
RMK AO2 SLP117 WND DATA ESTMD T01670133=

Extra information for KQKG:More info

Social comments